sensor_id;sensor_type;location;lat;lon;timestamp;temperature;humidity
20492;DHT22;10404;51.468;6.762;2024-02-04T00:00:27;9.00;90.60
20492;DHT22;10404;51.468;6.762;2024-02-04T00:02:52;9.00;90.60
20492;DHT22;10404;51.468;6.762;2024-02-04T00:05:18;9.00;90.60
20492;DHT22;10404;51.468;6.762;2024-02-04T00:07:44;9.00;90.60
20492;DHT22;10404;51.468;6.762;2024-02-04T00:10:10;9.00;90.50
20492;DHT22;10404;51.468;6.762;2024-02-04T00:12:36;9.00;90.50
20492;DHT22;10404;51.468;6.762;2024-02-04T00:15:02;9.00;90.30
20492;DHT22;10404;51.468;6.762;2024-02-04T00:17:30;9.00;90.40
20492;DHT22;10404;51.468;6.762;2024-02-04T00:19:58;9.00;90.40
20492;DHT22;10404;51.468;6.762;2024-02-04T00:22:24;9.00;90.40
20492;DHT22;10404;51.468;6.762;2024-02-04T00:24:49;9.00;90.50
20492;DHT22;10404;51.468;6.762;2024-02-04T00:27:15;9.00;90.60
20492;DHT22;10404;51.468;6.762;2024-02-04T00:29:40;9.00;90.50
20492;DHT22;10404;51.468;6.762;2024-02-04T00:32:06;9.00;90.50
20492;DHT22;10404;51.468;6.762;2024-02-04T00:34:32;9.00;90.60
20492;DHT22;10404;51.468;6.762;2024-02-04T00:36:57;8.90;90.60
20492;DHT22;10404;51.468;6.762;2024-02-04T00:39:23;8.90;90.50
20492;DHT22;10404;51.468;6.762;2024-02-04T00:41:48;8.90;90.60
20492;DHT22;10404;51.468;6.762;2024-02-04T00:44:14;8.90;90.60
20492;DHT22;10404;51.468;6.762;2024-02-04T00:46:39;8.90;90.70
20492;DHT22;10404;51.468;6.762;2024-02-04T00:49:05;8.90;90.80
20492;DHT22;10404;51.468;6.762;2024-02-04T00:51:30;8.90;90.80
20492;DHT22;10404;51.468;6.762;2024-02-04T00:53:57;8.90;90.80
20492;DHT22;10404;51.468;6.762;2024-02-04T00:56:22;8.90;90.80
20492;DHT22;10404;51.468;6.762;2024-02-04T00:58:48;8.90;90.70
20492;DHT22;10404;51.468;6.762;2024-02-04T01:01:14;8.90;90.70
20492;DHT22;10404;51.468;6.762;2024-02-04T01:03:39;8.90;90.70
20492;DHT22;10404;51.468;6.762;2024-02-04T01:06:05;8.90;90.80
20492;DHT22;10404;51.468;6.762;2024-02-04T01:08:30;8.90;90.70
20492;DHT22;10404;51.468;6.762;2024-02-04T01:10:56;8.90;90.70
20492;DHT22;10404;51.468;6.762;2024-02-04T01:13:21;8.90;90.80
20492;DHT22;10404;51.468;6.762;2024-02-04T01:15:47;8.90;90.80
20492;DHT22;10404;51.468;6.762;2024-02-04T01:18:12;8.90;90.70
20492;DHT22;10404;51.468;6.762;2024-02-04T01:20:38;8.90;90.80
20492;DHT22;10404;51.468;6.762;2024-02-04T01:23:04;8.90;90.80
20492;DHT22;10404;51.468;6.762;2024-02-04T01:25:29;8.90;90.80
20492;DHT22;10404;51.468;6.762;2024-02-04T01:27:55;8.90;90.70
20492;DHT22;10404;51.468;6.762;2024-02-04T01:30:20;8.90;90.70
20492;DHT22;10404;51.468;6.762;2024-02-04T01:32:46;8.90;90.70
20492;DHT22;10404;51.468;6.762;2024-02-04T01:35:11;8.90;90.80
20492;DHT22;10404;51.468;6.762;2024-02-04T01:37:37;8.90;91.00
20492;DHT22;10404;51.468;6.762;2024-02-04T01:40:03;8.90;90.90
20492;DHT22;10404;51.468;6.762;2024-02-04T01:42:31;8.90;90.80
20492;DHT22;10404;51.468;6.762;2024-02-04T01:44:56;8.90;90.80
20492;DHT22;10404;51.468;6.762;2024-02-04T01:47:22;8.90;90.90
20492;DHT22;10404;51.468;6.762;2024-02-04T01:49:48;8.90;90.90
20492;DHT22;10404;51.468;6.762;2024-02-04T01:52:17;8.90;91.00
20492;DHT22;10404;51.468;6.762;2024-02-04T01:54:43;8.90;91.00
20492;DHT22;10404;51.468;6.762;2024-02-04T01:57:10;8.90;91.00
20492;DHT22;10404;51.468;6.762;2024-02-04T01:59:39;8.90;91.10
20492;DHT22;10404;51.468;6.762;2024-02-04T02:02:05;8.90;90.90
20492;DHT22;10404;51.468;6.762;2024-02-04T02:04:31;8.90;91.10
20492;DHT22;10404;51.468;6.762;2024-02-04T02:06:57;8.90;91.20
20492;DHT22;10404;51.468;6.762;2024-02-04T02:09:25;8.90;91.10
20492;DHT22;10404;51.468;6.762;2024-02-04T02:12:01;8.90;91.10
20492;DHT22;10404;51.468;6.762;2024-02-04T02:14:32;8.90;91.10
20492;DHT22;10404;51.468;6.762;2024-02-04T02:17:03;8.90;91.20
20492;DHT22;10404;51.468;6.762;2024-02-04T02:20:09;8.90;91.20
20492;DHT22;10404;51.468;6.762;2024-02-04T02:25:06;8.90;91.10
20492;DHT22;10404;51.468;6.762;2024-02-04T02:27:33;8.90;91.10
20492;DHT22;10404;51.468;6.762;2024-02-04T02:29:58;8.90;91.10
20492;DHT22;10404;51.468;6.762;2024-02-04T02:32:24;8.90;91.20
20492;DHT22;10404;51.468;6.762;2024-02-04T02:34:50;8.90;91.20
20492;DHT22;10404;51.468;6.762;2024-02-04T02:39:58;8.90;91.30
20492;DHT22;10404;51.468;6.762;2024-02-04T02:42:25;8.90;91.30
20492;DHT22;10404;51.468;6.762;2024-02-04T02:44:53;8.90;91.20
20492;DHT22;10404;51.468;6.762;2024-02-04T02:47:19;8.90;91.20
20492;DHT22;10404;51.468;6.762;2024-02-04T02:49:46;8.90;91.20
20492;DHT22;10404;51.468;6.762;2024-02-04T02:52:11;8.90;91.30
20492;DHT22;10404;51.468;6.762;2024-02-04T02:54:37;8.90;91.10
20492;DHT22;10404;51.468;6.762;2024-02-04T02:57:02;8.90;91.20
20492;DHT22;10404;51.468;6.762;2024-02-04T02:59:28;8.90;91.10
20492;DHT22;10404;51.468;6.762;2024-02-04T03:01:54;8.90;91.10
20492;DHT22;10404;51.468;6.762;2024-02-04T03:04:19;8.90;91.30
20492;DHT22;10404;51.468;6.762;2024-02-04T03:06:45;8.90;91.30
20492;DHT22;10404;51.468;6.762;2024-02-04T03:09:10;8.90;91.30
20492;DHT22;10404;51.468;6.762;2024-02-04T03:11:36;8.90;91.20
20492;DHT22;10404;51.468;6.762;2024-02-04T03:14:03;8.90;91.30
20492;DHT22;10404;51.468;6.762;2024-02-04T03:16:28;8.90;91.40
20492;DHT22;10404;51.468;6.762;2024-02-04T03:18:54;8.90;91.30
20492;DHT22;10404;51.468;6.762;2024-02-04T03:21:19;8.90;91.40
20492;DHT22;10404;51.468;6.762;2024-02-04T03:23:45;8.90;91.30
20492;DHT22;10404;51.468;6.762;2024-02-04T03:26:11;8.90;91.10
20492;DHT22;10404;51.468;6.762;2024-02-04T03:28:37;8.90;91.20
20492;DHT22;10404;51.468;6.762;2024-02-04T03:31:03;9.00;91.20
20492;DHT22;10404;51.468;6.762;2024-02-04T03:33:28;8.90;91.30
20492;DHT22;10404;51.468;6.762;2024-02-04T03:35:54;8.90;91.30
20492;DHT22;10404;51.468;6.762;2024-02-04T03:38:19;8.90;91.30
20492;DHT22;10404;51.468;6.762;2024-02-04T03:40:46;8.90;91.40
20492;DHT22;10404;51.468;6.762;2024-02-04T03:43:11;9.00;91.30
20492;DHT22;10404;51.468;6.762;2024-02-04T03:45:37;9.00;91.30
20492;DHT22;10404;51.468;6.762;2024-02-04T03:48:03;8.90;91.10
20492;DHT22;10404;51.468;6.762;2024-02-04T03:50:29;9.00;91.20
20492;DHT22;10404;51.468;6.762;2024-02-04T03:52:54;9.00;91.20
20492;DHT22;10404;51.468;6.762;2024-02-04T03:55:20;9.00;91.30
20492;DHT22;10404;51.468;6.762;2024-02-04T03:57:46;9.00;91.40
20492;DHT22;10404;51.468;6.762;2024-02-04T04:00:12;9.00;91.50
20492;DHT22;10404;51.468;6.762;2024-02-04T04:02:37;9.00;91.30
20492;DHT22;10404;51.468;6.762;2024-02-04T04:05:03;9.00;91.30
20492;DHT22;10404;51.468;6.762;2024-02-04T04:07:30;9.00;91.40
20492;DHT22;10404;51.468;6.762;2024-02-04T04:09:55;9.00;91.50
20492;DHT22;10404;51.468;6.762;2024-02-04T04:12:21;9.00;91.30
20492;DHT22;10404;51.468;6.762;2024-02-04T04:14:46;9.00;91.40
20492;DHT22;10404;51.468;6.762;2024-02-04T04:17:12;9.00;91.50
20492;DHT22;10404;51.468;6.762;2024-02-04T04:19:39;9.00;91.50
20492;DHT22;10404;51.468;6.762;2024-02-04T04:22:04;9.00;91.40
20492;DHT22;10404;51.468;6.762;2024-02-04T04:24:30;9.00;91.50
20492;DHT22;10404;51.468;6.762;2024-02-04T04:26:55;9.00;91.50
20492;DHT22;10404;51.468;6.762;2024-02-04T04:29:21;9.00;91.50
20492;DHT22;10404;51.468;6.762;2024-02-04T04:31:46;9.00;91.40
20492;DHT22;10404;51.468;6.762;2024-02-04T04:34:12;9.00;91.30
20492;DHT22;10404;51.468;6.762;2024-02-04T04:36:38;9.00;91.30
20492;DHT22;10404;51.468;6.762;2024-02-04T04:39:04;9.00;91.40
20492;DHT22;10404;51.468;6.762;2024-02-04T04:41:30;9.00;91.30
20492;DHT22;10404;51.468;6.762;2024-02-04T04:43:55;9.00;91.20
20492;DHT22;10404;51.468;6.762;2024-02-04T04:46:21;9.00;91.40
20492;DHT22;10404;51.468;6.762;2024-02-04T04:48:46;9.00;91.30
20492;DHT22;10404;51.468;6.762;2024-02-04T04:51:12;9.00;91.30
20492;DHT22;10404;51.468;6.762;2024-02-04T04:53:38;9.00;91.30
20492;DHT22;10404;51.468;6.762;2024-02-04T04:56:04;9.00;91.40
20492;DHT22;10404;51.468;6.762;2024-02-04T04:58:30;9.00;91.20
20492;DHT22;10404;51.468;6.762;2024-02-04T05:00:56;9.00;91.20
20492;DHT22;10404;51.468;6.762;2024-02-04T05:03:21;9.00;91.20
20492;DHT22;10404;51.468;6.762;2024-02-04T05:05:47;9.00;91.00
20492;DHT22;10404;51.468;6.762;2024-02-04T05:08:15;9.00;91.00
20492;DHT22;10404;51.468;6.762;2024-02-04T05:10:41;9.00;91.10
20492;DHT22;10404;51.468;6.762;2024-02-04T05:13:07;9.00;91.10
20492;DHT22;10404;51.468;6.762;2024-02-04T05:15:33;9.00;91.00
20492;DHT22;10404;51.468;6.762;2024-02-04T05:18:02;9.00;91.10
20492;DHT22;10404;51.468;6.762;2024-02-04T05:20:27;9.00;91.00
20492;DHT22;10404;51.468;6.762;2024-02-04T05:22:54;9.00;91.00
20492;DHT22;10404;51.468;6.762;2024-02-04T05:25:20;9.00;91.10
20492;DHT22;10404;51.468;6.762;2024-02-04T05:27:46;9.00;91.00
20492;DHT22;10404;51.468;6.762;2024-02-04T05:30:12;9.00;91.00
20492;DHT22;10404;51.468;6.762;2024-02-04T05:32:37;9.00;91.00
20492;DHT22;10404;51.468;6.762;2024-02-04T05:35:03;9.00;91.00
20492;DHT22;10404;51.468;6.762;2024-02-04T05:37:29;9.00;91.00
20492;DHT22;10404;51.468;6.762;2024-02-04T05:39:55;9.00;91.00
20492;DHT22;10404;51.468;6.762;2024-02-04T05:42:20;9.00;91.00
20492;DHT22;10404;51.468;6.762;2024-02-04T05:44:46;9.00;91.00
20492;DHT22;10404;51.468;6.762;2024-02-04T05:47:11;9.00;90.90
20492;DHT22;10404;51.468;6.762;2024-02-04T05:49:37;9.00;90.80
20492;DHT22;10404;51.468;6.762;2024-02-04T05:52:02;9.00;91.00
20492;DHT22;10404;51.468;6.762;2024-02-04T05:54:28;9.00;91.00
20492;DHT22;10404;51.468;6.762;2024-02-04T05:56:54;9.00;90.90
20492;DHT22;10404;51.468;6.762;2024-02-04T05:59:19;9.00;91.00
20492;DHT22;10404;51.468;6.762;2024-02-04T06:01:45;9.00;91.00
20492;DHT22;10404;51.468;6.762;2024-02-04T06:04:10;9.00;91.00
20492;DHT22;10404;51.468;6.762;2024-02-04T06:06:36;9.00;91.00
20492;DHT22;10404;51.468;6.762;2024-02-04T06:09:02;9.00;90.90
20492;DHT22;10404;51.468;6.762;2024-02-04T06:11:28;9.00;90.90
20492;DHT22;10404;51.468;6.762;2024-02-04T06:13:53;9.00;91.00
20492;DHT22;10404;51.468;6.762;2024-02-04T06:16:19;9.00;91.00
20492;DHT22;10404;51.468;6.762;2024-02-04T06:18:44;9.00;91.00
20492;DHT22;10404;51.468;6.762;2024-02-04T06:21:10;9.00;91.10
20492;DHT22;10404;51.468;6.762;2024-02-04T06:23:38;9.00;91.00
20492;DHT22;10404;51.468;6.762;2024-02-04T06:26:05;9.00;91.10
20492;DHT22;10404;51.468;6.762;2024-02-04T06:28:30;9.00;91.10
20492;DHT22;10404;51.468;6.762;2024-02-04T06:30:56;9.00;91.10
20492;DHT22;10404;51.468;6.762;2024-02-04T06:33:21;9.00;91.10
20492;DHT22;10404;51.468;6.762;2024-02-04T06:35:48;9.00;91.30
20492;DHT22;10404;51.468;6.762;2024-02-04T06:38:14;9.00;91.20
20492;DHT22;10404;51.468;6.762;2024-02-04T06:40:39;9.00;91.20
20492;DHT22;10404;51.468;6.762;2024-02-04T06:43:05;9.00;91.30
20492;DHT22;10404;51.468;6.762;2024-02-04T06:45:30;9.00;91.20
20492;DHT22;10404;51.468;6.762;2024-02-04T06:47:56;9.00;91.20
20492;DHT22;10404;51.468;6.762;2024-02-04T06:50:21;9.00;91.40
20492;DHT22;10404;51.468;6.762;2024-02-04T06:52:47;9.00;91.20
20492;DHT22;10404;51.468;6.762;2024-02-04T06:55:13;9.00;91.20
20492;DHT22;10404;51.468;6.762;2024-02-04T06:57:41;9.00;91.30
20492;DHT22;10404;51.468;6.762;2024-02-04T07:00:07;9.00;91.30
20492;DHT22;10404;51.468;6.762;2024-02-04T07:02:37;9.00;91.30
20492;DHT22;10404;51.468;6.762;2024-02-04T07:05:03;9.00;91.40
20492;DHT22;10404;51.468;6.762;2024-02-04T07:07:28;9.00;91.40
20492;DHT22;10404;51.468;6.762;2024-02-04T07:09:54;9.00;91.50
20492;DHT22;10404;51.468;6.762;2024-02-04T07:12:20;9.00;91.50
20492;DHT22;10404;51.468;6.762;2024-02-04T07:14:46;9.00;91.40
20492;DHT22;10404;51.468;6.762;2024-02-04T07:17:12;9.00;91.30
20492;DHT22;10404;51.468;6.762;2024-02-04T07:19:37;9.00;91.40
20492;DHT22;10404;51.468;6.762;2024-02-04T07:22:03;9.00;91.40
20492;DHT22;10404;51.468;6.762;2024-02-04T07:24:29;9.00;91.40
20492;DHT22;10404;51.468;6.762;2024-02-04T07:26:55;9.00;91.30
20492;DHT22;10404;51.468;6.762;2024-02-04T07:29:21;9.00;91.20
20492;DHT22;10404;51.468;6.762;2024-02-04T07:31:46;9.00;91.30
20492;DHT22;10404;51.468;6.762;2024-02-04T07:34:12;9.00;91.40
20492;DHT22;10404;51.468;6.762;2024-02-04T07:36:37;9.00;91.40
20492;DHT22;10404;51.468;6.762;2024-02-04T07:39:03;9.00;91.40
20492;DHT22;10404;51.468;6.762;2024-02-04T07:41:30;9.00;91.30
20492;DHT22;10404;51.468;6.762;2024-02-04T07:43:56;9.00;91.40
20492;DHT22;10404;51.468;6.762;2024-02-04T07:46:22;9.00;91.50
20492;DHT22;10404;51.468;6.762;2024-02-04T07:48:48;9.00;91.50
20492;DHT22;10404;51.468;6.762;2024-02-04T07:51:16;9.00;91.50
20492;DHT22;10404;51.468;6.762;2024-02-04T07:53:41;9.00;91.50
20492;DHT22;10404;51.468;6.762;2024-02-04T07:56:07;9.00;91.50
20492;DHT22;10404;51.468;6.762;2024-02-04T07:58:33;9.00;91.50
20492;DHT22;10404;51.468;6.762;2024-02-04T08:00:59;9.00;91.40
20492;DHT22;10404;51.468;6.762;2024-02-04T08:03:24;9.00;91.50
20492;DHT22;10404;51.468;6.762;2024-02-04T08:05:50;9.00;91.40
20492;DHT22;10404;51.468;6.762;2024-02-04T08:08:16;9.00;91.30
20492;DHT22;10404;51.468;6.762;2024-02-04T08:10:42;9.00;91.40
20492;DHT22;10404;51.468;6.762;2024-02-04T08:13:07;9.00;91.40
20492;DHT22;10404;51.468;6.762;2024-02-04T08:15:33;9.00;91.40
20492;DHT22;10404;51.468;6.762;2024-02-04T08:17:58;9.00;91.30
20492;DHT22;10404;51.468;6.762;2024-02-04T08:20:24;9.00;91.30
20492;DHT22;10404;51.468;6.762;2024-02-04T08:22:51;9.00;91.30
20492;DHT22;10404;51.468;6.762;2024-02-04T08:25:16;9.00;91.40
20492;DHT22;10404;51.468;6.762;2024-02-04T08:27:42;9.00;91.50
20492;DHT22;10404;51.468;6.762;2024-02-04T08:30:08;9.00;91.30
20492;DHT22;10404;51.468;6.762;2024-02-04T08:32:35;9.00;91.30
20492;DHT22;10404;51.468;6.762;2024-02-04T08:35:00;9.00;91.40
20492;DHT22;10404;51.468;6.762;2024-02-04T08:37:26;9.00;91.40
20492;DHT22;10404;51.468;6.762;2024-02-04T08:39:51;9.00;91.50
20492;DHT22;10404;51.468;6.762;2024-02-04T08:42:17;9.00;91.50
20492;DHT22;10404;51.468;6.762;2024-02-04T08:44:43;9.00;91.50
20492;DHT22;10404;51.468;6.762;2024-02-04T08:47:09;9.00;91.50
20492;DHT22;10404;51.468;6.762;2024-02-04T08:49:36;9.00;91.40
20492;DHT22;10404;51.468;6.762;2024-02-04T08:52:02;9.00;91.70
20492;DHT22;10404;51.468;6.762;2024-02-04T08:54:28;9.10;92.10
20492;DHT22;10404;51.468;6.762;2024-02-04T08:56:54;9.20;92.50
20492;DHT22;10404;51.468;6.762;2024-02-04T08:59:20;9.20;92.70
20492;DHT22;10404;51.468;6.762;2024-02-04T09:01:46;9.20;92.80
20492;DHT22;10404;51.468;6.762;2024-02-04T09:04:11;9.20;92.90
20492;DHT22;10404;51.468;6.762;2024-02-04T09:06:37;9.20;93.40
20492;DHT22;10404;51.468;6.762;2024-02-04T09:09:02;9.20;93.20
20492;DHT22;10404;51.468;6.762;2024-02-04T09:11:28;9.20;93.20
20492;DHT22;10404;51.468;6.762;2024-02-04T09:13:54;9.20;93.20
20492;DHT22;10404;51.468;6.762;2024-02-04T09:16:19;9.30;93.30
20492;DHT22;10404;51.468;6.762;2024-02-04T09:18:45;9.20;93.30
20492;DHT22;10404;51.468;6.762;2024-02-04T09:21:13;9.30;93.20
20492;DHT22;10404;51.468;6.762;2024-02-04T09:23:39;9.30;92.80
20492;DHT22;10404;51.468;6.762;2024-02-04T09:26:05;9.30;92.80
20492;DHT22;10404;51.468;6.762;2024-02-04T09:28:30;9.40;93.20
20492;DHT22;10404;51.468;6.762;2024-02-04T09:30:56;9.40;93.20
20492;DHT22;10404;51.468;6.762;2024-02-04T09:33:22;9.40;93.00
20492;DHT22;10404;51.468;6.762;2024-02-04T09:35:48;9.40;92.70
20492;DHT22;10404;51.468;6.762;2024-02-04T09:38:14;9.40;92.40
20492;DHT22;10404;51.468;6.762;2024-02-04T09:40:41;9.40;92.30
20492;DHT22;10404;51.468;6.762;2024-02-04T09:43:06;9.40;92.50
20492;DHT22;10404;51.468;6.762;2024-02-04T09:45:33;9.50;92.50
20492;DHT22;10404;51.468;6.762;2024-02-04T09:48:01;9.50;92.30
20492;DHT22;10404;51.468;6.762;2024-02-04T09:50:27;9.60;92.40
20492;DHT22;10404;51.468;6.762;2024-02-04T09:52:58;9.60;91.90
20492;DHT22;10404;51.468;6.762;2024-02-04T09:55:24;9.60;91.80
20492;DHT22;10404;51.468;6.762;2024-02-04T09:57:50;9.50;91.80
20492;DHT22;10404;51.468;6.762;2024-02-04T10:00:18;9.50;91.90
20492;DHT22;10404;51.468;6.762;2024-02-04T10:02:44;9.50;91.80
20492;DHT22;10404;51.468;6.762;2024-02-04T10:05:10;9.40;91.70
20492;DHT22;10404;51.468;6.762;2024-02-04T10:07:36;9.40;91.80
20492;DHT22;10404;51.468;6.762;2024-02-04T10:10:02;9.40;91.60
20492;DHT22;10404;51.468;6.762;2024-02-04T10:12:28;9.40;91.50
20492;DHT22;10404;51.468;6.762;2024-02-04T10:14:54;9.40;91.70
20492;DHT22;10404;51.468;6.762;2024-02-04T10:17:19;9.40;91.70
20492;DHT22;10404;51.468;6.762;2024-02-04T10:19:48;9.40;91.70
20492;DHT22;10404;51.468;6.762;2024-02-04T10:22:14;9.40;91.80
20492;DHT22;10404;51.468;6.762;2024-02-04T10:24:42;9.40;91.70
20492;DHT22;10404;51.468;6.762;2024-02-04T10:27:12;9.40;91.70
20492;DHT22;10404;51.468;6.762;2024-02-04T10:29:37;9.50;91.50
20492;DHT22;10404;51.468;6.762;2024-02-04T10:32:03;9.50;91.60
20492;DHT22;10404;51.468;6.762;2024-02-04T10:34:29;9.50;91.50
20492;DHT22;10404;51.468;6.762;2024-02-04T10:36:56;9.50;91.40
20492;DHT22;10404;51.468;6.762;2024-02-04T10:39:22;9.50;91.40
20492;DHT22;10404;51.468;6.762;2024-02-04T10:41:52;9.50;91.40
20492;DHT22;10404;51.468;6.762;2024-02-04T10:44:21;9.60;91.20
20492;DHT22;10404;51.468;6.762;2024-02-04T10:46:49;9.60;91.20
20492;DHT22;10404;51.468;6.762;2024-02-04T10:49:15;9.60;91.20
20492;DHT22;10404;51.468;6.762;2024-02-04T10:51:42;9.60;91.10
20492;DHT22;10404;51.468;6.762;2024-02-04T10:54:08;9.60;91.10
20492;DHT22;10404;51.468;6.762;2024-02-04T10:56:44;9.70;91.10
20492;DHT22;10404;51.468;6.762;2024-02-04T10:59:10;9.60;90.90
20492;DHT22;10404;51.468;6.762;2024-02-04T11:01:41;9.70;90.90
20492;DHT22;10404;51.468;6.762;2024-02-04T11:04:10;9.70;90.90
20492;DHT22;10404;51.468;6.762;2024-02-04T11:06:40;9.70;90.90
20492;DHT22;10404;51.468;6.762;2024-02-04T11:09:08;9.70;90.80
20492;DHT22;10404;51.468;6.762;2024-02-04T11:11:38;9.70;90.90
20492;DHT22;10404;51.468;6.762;2024-02-04T11:14:13;9.70;90.90
20492;DHT22;10404;51.468;6.762;2024-02-04T11:27:17;9.70;91.30
20492;DHT22;10404;51.468;6.762;2024-02-04T11:29:42;9.70;91.40
20492;DHT22;10404;51.468;6.762;2024-02-04T11:32:09;9.70;91.40
20492;DHT22;10404;51.468;6.762;2024-02-04T11:34:34;9.70;91.40
20492;DHT22;10404;51.468;6.762;2024-02-04T11:37:01;9.70;91.40
20492;DHT22;10404;51.468;6.762;2024-02-04T11:39:27;9.70;91.50
20492;DHT22;10404;51.468;6.762;2024-02-04T11:41:53;9.70;91.40
20492;DHT22;10404;51.468;6.762;2024-02-04T11:44:26;9.70;91.20
20492;DHT22;10404;51.468;6.762;2024-02-04T11:46:52;9.70;91.50
20492;DHT22;10404;51.468;6.762;2024-02-04T11:49:18;9.70;91.40
20492;DHT22;10404;51.468;6.762;2024-02-04T11:51:50;9.70;91.40
20492;DHT22;10404;51.468;6.762;2024-02-04T11:54:16;9.70;91.40
20492;DHT22;10404;51.468;6.762;2024-02-04T11:56:44;9.70;91.40
20492;DHT22;10404;51.468;6.762;2024-02-04T11:59:11;9.80;91.50
20492;DHT22;10404;51.468;6.762;2024-02-04T12:01:37;9.80;91.20
20492;DHT22;10404;51.468;6.762;2024-02-04T12:04:13;9.80;91.40
20492;DHT22;10404;51.468;6.762;2024-02-04T12:06:59;9.80;91.40
20492;DHT22;10404;51.468;6.762;2024-02-04T12:09:26;9.80;91.50
20492;DHT22;10404;51.468;6.762;2024-02-04T12:11:53;9.80;91.50
20492;DHT22;10404;51.468;6.762;2024-02-04T12:14:19;9.80;91.40
20492;DHT22;10404;51.468;6.762;2024-02-04T12:16:45;9.80;91.40
20492;DHT22;10404;51.468;6.762;2024-02-04T12:19:11;9.90;91.10
20492;DHT22;10404;51.468;6.762;2024-02-04T12:21:37;9.90;91.30
20492;DHT22;10404;51.468;6.762;2024-02-04T12:24:04;9.90;91.20
20492;DHT22;10404;51.468;6.762;2024-02-04T12:26:29;9.90;91.10
20492;DHT22;10404;51.468;6.762;2024-02-04T12:28:55;10.00;91.10
20492;DHT22;10404;51.468;6.762;2024-02-04T12:31:25;10.00;91.20
20492;DHT22;10404;51.468;6.762;2024-02-04T12:33:58;10.00;91.20
20492;DHT22;10404;51.468;6.762;2024-02-04T12:36:28;10.00;91.20
20492;DHT22;10404;51.468;6.762;2024-02-04T12:38:55;10.00;91.10
20492;DHT22;10404;51.468;6.762;2024-02-04T12:41:22;10.00;91.30
20492;DHT22;10404;51.468;6.762;2024-02-04T12:43:57;10.00;91.30
20492;DHT22;10404;51.468;6.762;2024-02-04T12:46:23;10.00;91.30
20492;DHT22;10404;51.468;6.762;2024-02-04T12:48:53;10.00;91.20
20492;DHT22;10404;51.468;6.762;2024-02-04T12:51:34;10.00;91.30
20492;DHT22;10404;51.468;6.762;2024-02-04T12:54:06;10.00;91.10
20492;DHT22;10404;51.468;6.762;2024-02-04T12:59:11;10.00;91.10
20492;DHT22;10404;51.468;6.762;2024-02-04T13:01:37;10.00;91.30
20492;DHT22;10404;51.468;6.762;2024-02-04T13:04:03;10.00;91.30
20492;DHT22;10404;51.468;6.762;2024-02-04T13:06:30;10.00;91.30
20492;DHT22;10404;51.468;6.762;2024-02-04T13:08:57;10.00;91.30
20492;DHT22;10404;51.468;6.762;2024-02-04T13:11:25;10.00;91.20
20492;DHT22;10404;51.468;6.762;2024-02-04T13:13:52;10.00;91.10
20492;DHT22;10404;51.468;6.762;2024-02-04T13:18:52;10.10;91.20
20492;DHT22;10404;51.468;6.762;2024-02-04T13:21:17;10.10;91.20
20492;DHT22;10404;51.468;6.762;2024-02-04T13:23:46;10.10;91.30
20492;DHT22;10404;51.468;6.762;2024-02-04T13:26:11;10.10;91.10
20492;DHT22;10404;51.468;6.762;2024-02-04T13:28:38;10.10;91.20
20492;DHT22;10404;51.468;6.762;2024-02-04T13:31:04;10.10;91.20
20492;DHT22;10404;51.468;6.762;2024-02-04T13:33:30;10.00;91.40
20492;DHT22;10404;51.468;6.762;2024-02-04T13:35:56;10.10;91.60
20492;DHT22;10404;51.468;6.762;2024-02-04T13:38:22;10.10;91.80
20492;DHT22;10404;51.468;6.762;2024-02-04T13:40:47;10.10;91.80
20492;DHT22;10404;51.468;6.762;2024-02-04T13:43:13;10.10;91.80
20492;DHT22;10404;51.468;6.762;2024-02-04T13:45:39;10.00;91.80
20492;DHT22;10404;51.468;6.762;2024-02-04T13:48:05;10.10;91.60
20492;DHT22;10404;51.468;6.762;2024-02-04T13:50:31;10.10;91.60
20492;DHT22;10404;51.468;6.762;2024-02-04T13:52:56;10.10;91.60
20492;DHT22;10404;51.468;6.762;2024-02-04T13:55:23;10.10;91.50
20492;DHT22;10404;51.468;6.762;2024-02-04T13:57:49;10.10;91.30
20492;DHT22;10404;51.468;6.762;2024-02-04T14:00:14;10.10;91.40
20492;DHT22;10404;51.468;6.762;2024-02-04T14:02:40;10.10;91.40
20492;DHT22;10404;51.468;6.762;2024-02-04T14:05:06;10.10;91.50
20492;DHT22;10404;51.468;6.762;2024-02-04T14:07:32;10.10;91.30
20492;DHT22;10404;51.468;6.762;2024-02-04T14:09:58;10.00;91.30
20492;DHT22;10404;51.468;6.762;2024-02-04T14:12:24;10.00;91.30
20492;DHT22;10404;51.468;6.762;2024-02-04T14:14:49;10.00;91.40
20492;DHT22;10404;51.468;6.762;2024-02-04T14:17:15;10.00;91.40
20492;DHT22;10404;51.468;6.762;2024-02-04T14:19:41;10.10;91.30
20492;DHT22;10404;51.468;6.762;2024-02-04T14:22:06;10.00;91.30
20492;DHT22;10404;51.468;6.762;2024-02-04T14:24:32;10.00;91.30
20492;DHT22;10404;51.468;6.762;2024-02-04T14:27:00;10.00;91.30
20492;DHT22;10404;51.468;6.762;2024-02-04T14:29:26;10.00;91.40
20492;DHT22;10404;51.468;6.762;2024-02-04T14:31:52;10.00;91.40
20492;DHT22;10404;51.468;6.762;2024-02-04T14:34:18;10.00;91.30
20492;DHT22;10404;51.468;6.762;2024-02-04T14:36:43;10.00;91.30
20492;DHT22;10404;51.468;6.762;2024-02-04T14:39:09;10.00;91.30
20492;DHT22;10404;51.468;6.762;2024-02-04T14:41:37;10.00;91.40
20492;DHT22;10404;51.468;6.762;2024-02-04T14:44:03;10.00;91.30
20492;DHT22;10404;51.468;6.762;2024-02-04T14:46:29;10.00;91.20
20492;DHT22;10404;51.468;6.762;2024-02-04T14:48:54;10.00;91.10
20492;DHT22;10404;51.468;6.762;2024-02-04T14:51:20;10.00;91.30
20492;DHT22;10404;51.468;6.762;2024-02-04T14:53:45;10.00;91.20
20492;DHT22;10404;51.468;6.762;2024-02-04T14:56:13;10.00;91.20
20492;DHT22;10404;51.468;6.762;2024-02-04T14:58:39;10.00;91.20
20492;DHT22;10404;51.468;6.762;2024-02-04T15:01:05;10.00;91.10
20492;DHT22;10404;51.468;6.762;2024-02-04T15:03:30;10.00;91.10
20492;DHT22;10404;51.468;6.762;2024-02-04T15:05:56;10.00;91.10
20492;DHT22;10404;51.468;6.762;2024-02-04T15:08:21;10.00;91.10
20492;DHT22;10404;51.468;6.762;2024-02-04T15:10:47;10.00;91.10
20492;DHT22;10404;51.468;6.762;2024-02-04T15:13:13;10.00;90.90
20492;DHT22;10404;51.468;6.762;2024-02-04T15:15:39;10.00;91.00
20492;DHT22;10404;51.468;6.762;2024-02-04T15:18:05;10.00;91.00
20492;DHT22;10404;51.468;6.762;2024-02-04T15:20:32;10.00;90.90
20492;DHT22;10404;51.468;6.762;2024-02-04T15:22:58;10.00;91.00
20492;DHT22;10404;51.468;6.762;2024-02-04T15:25:26;10.00;91.10
20492;DHT22;10404;51.468;6.762;2024-02-04T15:27:52;10.00;91.10
20492;DHT22;10404;51.468;6.762;2024-02-04T15:30:20;10.00;90.90
20492;DHT22;10404;51.468;6.762;2024-02-04T15:32:46;10.00;91.10
20492;DHT22;10404;51.468;6.762;2024-02-04T15:35:12;10.00;91.10
20492;DHT22;10404;51.468;6.762;2024-02-04T15:37:38;10.00;90.90
20492;DHT22;10404;51.468;6.762;2024-02-04T15:40:04;10.00;90.90
20492;DHT22;10404;51.468;6.762;2024-02-04T15:42:30;10.00;91.00
20492;DHT22;10404;51.468;6.762;2024-02-04T15:44:55;10.00;90.90
20492;DHT22;10404;51.468;6.762;2024-02-04T15:47:22;10.00;91.00
20492;DHT22;10404;51.468;6.762;2024-02-04T15:49:48;10.00;91.00
20492;DHT22;10404;51.468;6.762;2024-02-04T15:52:14;10.00;90.90
20492;DHT22;10404;51.468;6.762;2024-02-04T15:54:40;10.00;91.10
20492;DHT22;10404;51.468;6.762;2024-02-04T15:57:08;10.00;91.10